createdAt,value
2022-10-01T00:01:15.565Z,87154.56
2022-10-01T00:03:44.403Z,87147.78
2022-10-01T00:06:19.084Z,87151.56
2022-10-01T00:08:50.326Z,87150.44
2022-10-01T00:11:25.830Z,87140.66
2022-10-01T00:13:54.771Z,87135.75
2022-10-01T00:16:27.029Z,87131.22
2022-10-01T00:18:55.436Z,87130.47
2022-10-01T00:21:30.132Z,87135.72
2022-10-01T00:24:04.188Z,87134.25
2022-10-01T00:26:35.857Z,87138.78
2022-10-01T00:29:07.558Z,87133.47
2022-10-01T00:31:35.225Z,87139.50
2022-10-01T00:34:03.728Z,87134.63
2022-10-01T00:36:32.698Z,87142.13
2022-10-01T00:39:00.058Z,87143.28
2022-10-01T00:41:33.794Z,87148.53
2022-10-01T00:44:24.454Z,87142.91
2022-10-01T00:46:55.790Z,87144.41
2022-10-01T00:49:31.969Z,87151.97
2022-10-01T00:52:08.283Z,87151.19
2022-10-01T00:54:48.754Z,87139.13
2022-10-01T00:57:20.833Z,87134.25
2022-10-01T00:59:50.396Z,87135.00
2022-10-01T01:02:17.591Z,87139.91
2022-10-01T01:04:45.413Z,87143.28
2022-10-01T01:07:13.176Z,87148.56
2022-10-01T01:09:50.986Z,87145.94
2022-10-01T01:12:50.302Z,87156.09
2022-10-01T01:15:46.635Z,87146.31
2022-10-01T01:18:28.386Z,87143.31
2022-10-01T01:21:22.127Z,87154.59
2022-10-01T01:24:12.230Z,87154.97
2022-10-01T01:27:02.749Z,87159.88
2022-10-01T01:29:53.910Z,87159.09
2022-10-01T01:32:40.274Z,87164.38
2022-10-01T01:35:12.702Z,87167.75
2022-10-01T01:37:48.657Z,87163.63
2022-10-01T01:40:19.476Z,87153.47
2022-10-01T01:42:49.174Z,87160.63
2022-10-01T01:45:24.866Z,87164.78
2022-10-01T01:47:56.016Z,87169.66
2022-10-01T01:50:25.551Z,87165.16
2022-10-01T01:52:53.294Z,87173.81
2022-10-01T01:55:24.628Z,87167.41
2022-10-01T01:57:52.187Z,87168.13
2022-10-01T02:00:19.463Z,87167.41
2022-10-01T02:02:54.176Z,87161.75
2022-10-01T02:05:28.898Z,87161.75
2022-10-01T02:08:23.636Z,87162.13
2022-10-01T02:11:23.255Z,87155.34
2022-10-01T02:14:35.333Z,87166.63
2022-10-01T02:17:40.267Z,87164.38
2022-10-01T02:20:48.601Z,87164.00
2022-10-01T02:23:29.403Z,87166.63
2022-10-01T02:26:04.633Z,87174.94
2022-10-01T02:28:37.529Z,87173.06
2022-10-01T02:31:05.518Z,87166.66
2022-10-01T02:33:36.026Z,87162.13
2022-10-01T02:36:08.309Z,87172.28
2022-10-01T02:38:40.787Z,87170.03
2022-10-01T02:41:11.992Z,87162.88
2022-10-01T02:44:05.840Z,87166.66
2022-10-01T02:47:12.550Z,87160.63
2022-10-01T02:49:40.640Z,87157.63
2022-10-01T02:52:46.056Z,87158.38
2022-10-01T02:55:20.384Z,87156.84
2022-10-01T02:57:47.565Z,87146.31
2022-10-01T03:00:18.844Z,87144.78
2022-10-01T03:02:46.135Z,87146.31
2022-10-01T03:05:14.115Z,87142.91
2022-10-01T03:07:41.961Z,87145.19
2022-10-01T03:10:11.553Z,87132.75
2022-10-01T03:12:39.456Z,87141.78
2022-10-01T03:15:07.392Z,87141.78
2022-10-01T03:17:34.652Z,87135.00
2022-10-01T03:20:02.201Z,87135.41
2022-10-01T03:22:29.362Z,87129.00
2022-10-01T03:24:56.559Z,87136.53
2022-10-01T03:27:23.947Z,87135.00
2022-10-01T03:29:51.583Z,87139.53
2022-10-01T03:32:19.617Z,87142.16
2022-10-01T03:34:47.850Z,87140.25
2022-10-01T03:37:15.129Z,87146.66
2022-10-01T03:39:44.155Z,87144.78
2022-10-01T03:42:13.718Z,87142.50
2022-10-01T03:44:40.882Z,87145.91
2022-10-01T03:47:08.369Z,87136.88
2022-10-01T03:49:35.903Z,87134.22
2022-10-01T03:52:05.483Z,87131.97
2022-10-01T03:54:33.325Z,87144.75
2022-10-01T03:57:00.721Z,87138.72
2022-10-01T03:59:27.931Z,87128.19
2022-10-01T04:01:55.659Z,87130.44
2022-10-01T04:04:22.926Z,87128.16
2022-10-01T04:06:50.073Z,87121.03
2022-10-01T04:09:17.340Z,87131.94
2022-10-01T04:11:44.524Z,87128.88
2022-10-01T04:14:11.705Z,87131.88
2022-10-01T04:16:38.895Z,87137.88
2022-10-01T04:19:06.226Z,87137.84
2022-10-01T04:21:33.712Z,87141.25
2022-10-01T04:24:01.402Z,87140.50
2022-10-01T04:26:28.546Z,87150.59
2022-10-01T04:28:55.726Z,87155.88
2022-10-01T04:31:22.968Z,87152.84
2022-10-01T04:33:51.786Z,87151.00
2022-10-01T04:36:18.971Z,87141.22
2022-10-01T04:38:46.535Z,87137.81
2022-10-01T04:41:13.914Z,87135.19
2022-10-01T04:43:41.432Z,87130.31
2022-10-01T04:46:08.738Z,87138.56
2022-10-01T04:48:36.104Z,87131.06
2022-10-01T04:51:03.328Z,87132.91
2022-10-01T04:53:30.557Z,87138.94
2022-10-01T04:55:57.743Z,87140.06
2022-10-01T04:58:25.141Z,87140.81
2022-10-01T05:00:52.457Z,87150.97
2022-10-01T05:03:19.695Z,87154.34
2022-10-01T05:05:46.895Z,87159.22
2022-10-01T05:08:14.149Z,87157.72
2022-10-01T05:10:41.344Z,87158.09
2022-10-01T05:13:08.554Z,87172.38
2022-10-01T05:15:35.766Z,87172.00
2022-10-01T05:18:03.000Z,87174.25
2022-10-01T05:20:30.277Z,87170.13
2022-10-01T05:22:57.437Z,87179.53
2022-10-01T05:25:24.675Z,87175.03
2022-10-01T05:27:51.974Z,87176.50
2022-10-01T05:30:19.336Z,87173.53
2022-10-01T05:32:56.019Z,87172.03
2022-10-01T05:35:23.917Z,87175.41
2022-10-01T05:38:01.867Z,87175.44
2022-10-01T05:40:31.064Z,87178.44
2022-10-01T05:43:00.285Z,87177.31
2022-10-01T05:45:30.615Z,87185.97
2022-10-01T05:48:06.697Z,87187.09
2022-10-01T05:50:38.393Z,87190.50
2022-10-01T05:53:07.538Z,87177.72
2022-10-01T05:55:35.013Z,87179.22
2022-10-01T05:58:08.958Z,87173.19
2022-10-01T06:00:37.554Z,87175.09
2022-10-01T06:03:06.325Z,87177.34
2022-10-01T06:05:36.264Z,87174.69
2022-10-01T06:08:06.750Z,87181.84
2022-10-01T06:10:33.986Z,87179.22
2022-10-01T06:13:02.474Z,87179.97
2022-10-01T06:15:31.818Z,87177.34
2022-10-01T06:18:06.346Z,87173.59
2022-10-01T06:20:34.378Z,87178.09
2022-10-01T06:23:01.833Z,87180.00
2022-10-01T06:25:29.341Z,87191.66
2022-10-01T06:27:59.665Z,87191.72
2022-10-01T06:30:29.853Z,87190.97
2022-10-01T06:33:08.244Z,87191.72
2022-10-01T06:35:41.312Z,87191.34
2022-10-01T06:38:08.787Z,87196.25
2022-10-01T06:40:36.934Z,87204.16
2022-10-01T06:43:04.878Z,87204.53
2022-10-01T06:45:32.238Z,87213.56
2022-10-01T06:48:01.498Z,87209.44
2022-10-01T06:50:30.508Z,87215.47
2022-10-01T06:52:58.874Z,87221.53
2022-10-01T06:55:30.400Z,87221.56
2022-10-01T06:58:02.924Z,87216.66
2022-10-01T07:00:35.297Z,87222.31
2022-10-01T07:03:06.011Z,87219.31
2022-10-01T07:05:33.284Z,87215.56
2022-10-01T07:08:00.773Z,87218.22
2022-10-01T07:10:28.390Z,87221.22
2022-10-01T07:12:55.638Z,87219.72
2022-10-01T07:15:23.433Z,87214.44
2022-10-01T07:17:52.864Z,87220.09
2022-10-01T07:20:21.659Z,87221.25
2022-10-01T07:22:50.098Z,87222.75
2022-10-01T07:25:17.741Z,87224.28
2022-10-01T07:27:44.921Z,87221.66
2022-10-01T07:30:12.338Z,87224.66
2022-10-01T07:32:39.555Z,87228.78
2022-10-01T07:35:07.142Z,87226.91
2022-10-01T07:37:34.424Z,87242.00
2022-10-01T07:40:05.378Z,87243.50
2022-10-01T07:42:35.679Z,87250.66
2022-10-01T07:45:02.838Z,87242.00
2022-10-01T07:47:30.190Z,87246.91
2022-10-01T07:49:57.465Z,87253.28
2022-10-01T07:52:24.738Z,87245.00
2022-10-01T07:54:51.961Z,87243.88
2022-10-01T07:57:19.163Z,87237.47
2022-10-01T07:59:46.292Z,87239.75
2022-10-01T08:02:17.755Z,87235.19
2022-10-01T08:04:45.080Z,87240.47
2022-10-01T08:07:12.164Z,87242.34
2022-10-01T08:09:39.387Z,87236.69
2022-10-01T08:12:06.652Z,87236.66
2022-10-01T08:14:33.784Z,87238.53
2022-10-01T08:17:01.124Z,87233.22
2022-10-01T08:19:28.242Z,87229.44
2022-10-01T08:21:55.411Z,87227.53
2022-10-01T08:24:22.618Z,87233.53
2022-10-01T08:26:54.690Z,87229.34
2022-10-01T08:29:22.534Z,87230.44
2022-10-01T08:31:49.807Z,87246.63
2022-10-01T08:34:17.100Z,87241.72
2022-10-01T08:36:44.678Z,87243.97
2022-10-01T08:39:14.464Z,87241.28
2022-10-01T08:42:06.683Z,87239.38
2022-10-01T08:44:42.510Z,87237.84
2022-10-01T08:47:39.427Z,87234.03
2022-10-01T08:50:44.580Z,87224.16
2022-10-01T08:53:28.962Z,87216.56
2022-10-01T08:55:58.132Z,87217.28
2022-10-01T08:58:41.042Z,87211.22
2022-10-01T09:01:11.956Z,87211.19
2022-10-01T09:03:40.152Z,87202.81
2022-10-01T09:06:20.923Z,87203.91
2022-10-01T09:09:13.926Z,87195.91
2022-10-01T09:12:08.121Z,87195.09
2022-10-01T09:14:46.782Z,87190.56
2022-10-01T09:18:02.467Z,87181.47
2022-10-01T09:20:58.284Z,87187.06
2022-10-01T09:23:31.910Z,87195.34
2022-10-01T09:26:00.344Z,87200.25
2022-10-01T09:28:35.948Z,87202.84
2022-10-01T09:31:43.352Z,87205.47
2022-10-01T09:34:39.246Z,87190.31
2022-10-01T09:37:30.362Z,87201.63
2022-10-01T09:40:05.879Z,87197.06
2022-10-01T09:42:33.575Z,87204.19
2022-10-01T09:45:01.749Z,87196.19
2022-10-01T09:47:32.514Z,87204.84
2022-10-01T09:50:04.795Z,87212.78
2022-10-01T09:52:41.359Z,87206.34
2022-10-01T09:55:40.630Z,87205.25
2022-10-01T09:58:18.579Z,87193.53
2022-10-01T10:00:46.236Z,87196.94
2022-10-01T10:03:24.690Z,87190.22
2022-10-01T10:05:53.013Z,87189.41
2022-10-01T10:08:38.826Z,87197.00
2022-10-01T10:11:10.768Z,87190.94
2022-10-01T10:13:48.942Z,87191.66
2022-10-01T10:16:25.399Z,87195.81
2022-10-01T10:18:58.653Z,87190.13
2022-10-01T10:21:31.437Z,87192.41
2022-10-01T10:24:06.109Z,87199.94
2022-10-01T10:26:40.444Z,87193.47
2022-10-01T10:29:26.320Z,87205.53
2022-10-01T10:31:55.081Z,87196.75
2022-10-01T10:34:42.472Z,87194.09
2022-10-01T10:37:31.733Z,87188.72
2022-10-01T10:39:59.162Z,87193.59
2022-10-01T10:42:26.590Z,87190.56
2022-10-01T10:45:01.027Z,87189.75
2022-10-01T10:47:28.471Z,87186.63
2022-10-01T10:50:02.136Z,87179.69
2022-10-01T10:52:37.812Z,87187.97
2022-10-01T10:55:27.646Z,87185.53
2022-10-01T10:57:57.779Z,87182.75
2022-10-01T11:00:26.565Z,87173.94
2022-10-01T11:03:03.816Z,87170.38
2022-10-01T11:05:40.032Z,87166.13
2022-10-01T11:08:19.151Z,87163.38
2022-10-01T11:11:16.617Z,87168.94
2022-10-01T11:14:29.588Z,87161.66
2022-10-01T11:17:24.741Z,87155.16
2022-10-01T11:20:48.544Z,87160.28
2022-10-01T11:23:55.085Z,87156.53
2022-10-01T11:26:58.501Z,87150.25
2022-10-01T11:29:44.323Z,87148.94
2022-10-01T11:32:50.129Z,87147.66
2022-10-01T11:35:52.786Z,87156.13
2022-10-01T11:38:31.839Z,87139.19
2022-10-01T11:41:16.693Z,87137.56
2022-10-01T11:44:26.261Z,87129.50
2022-10-01T11:46:59.283Z,87129.44
2022-10-01T11:49:58.915Z,87120.31
2022-10-01T11:52:59.311Z,87112.84
2022-10-01T11:55:36.302Z,87109.53
2022-10-01T11:58:22.187Z,87113.56
2022-10-01T12:01:16.630Z,87115.66
2022-10-01T12:03:52.755Z,87121.38
2022-10-01T12:06:52.865Z,87113.75
2022-10-01T12:09:55.029Z,87121.81
2022-10-01T12:12:31.236Z,87120.72
2022-10-01T12:15:12.419Z,87109.56
2022-10-01T12:18:11.825Z,87112.13
2022-10-01T12:20:52.552Z,87122.69
2022-10-01T12:23:34.786Z,87128.66
2022-10-01T12:26:51.012Z,87124.31
2022-10-01T12:30:10.986Z,87119.97
2022-10-01T12:33:08.756Z,87107.53
2022-10-01T12:36:18.802Z,87114.44
2022-10-01T12:39:10.404Z,87107.72
2022-10-01T12:42:45.840Z,87111.09
2022-10-01T12:45:33.911Z,87119.91
2022-10-01T12:48:14.914Z,87121.94
2022-10-01T12:51:18.636Z,87119.06
2022-10-01T12:54:25.402Z,87115.59
2022-10-01T12:57:21.070Z,87111.63
2022-10-01T13:00:11.676Z,87113.69
2022-10-01T13:03:17.298Z,87120.34
2022-10-01T13:06:19.165Z,87112.50
2022-10-01T13:09:30.022Z,87116.44
2022-10-01T13:12:45.678Z,87120.38
2022-10-01T13:15:24.739Z,87119.13
2022-10-01T13:18:59.269Z,87111.69
2022-10-01T13:21:46.633Z,87117.06
2022-10-01T13:24:42.639Z,87127.06
2022-10-01T13:27:29.372Z,87118.09
2022-10-01T13:30:13.929Z,87113.94
2022-10-01T13:32:55.098Z,87118.09
2022-10-01T13:35:40.445Z,87116.25
2022-10-01T13:38:26.653Z,87117.50
2022-10-01T13:41:04.085Z,87113.66
2022-10-01T13:43:34.542Z,87108.56
2022-10-01T13:46:12.098Z,87098.00
2022-10-01T13:48:48.578Z,87104.38
2022-10-01T13:51:16.353Z,87108.53
2022-10-01T13:53:43.531Z,87106.06
2022-10-01T13:56:25.880Z,87107.34
2022-10-01T13:58:54.920Z,87107.13
2022-10-01T14:01:24.206Z,87112.03
2022-10-01T14:04:21.608Z,87110.06
2022-10-01T14:07:11.613Z,87111.44
2022-10-01T14:09:48.675Z,87088.75
2022-10-01T14:12:27.547Z,87090.19
2022-10-01T14:15:18.321Z,87082.50
2022-10-01T14:17:53.027Z,87075.84
2022-10-01T14:20:35.865Z,87085.03
2022-10-01T14:23:19.318Z,87078.44
2022-10-01T14:26:38.993Z,87075.19
2022-10-01T14:29:47.400Z,87083.81
2022-10-01T14:32:54.521Z,87088.22
2022-10-01T14:35:38.563Z,87100.28
2022-10-01T14:38:15.557Z,87095.59
2022-10-01T14:40:46.543Z,87096.50
2022-10-01T14:43:39.770Z,87084.81
2022-10-01T14:46:15.994Z,87083.75
2022-10-01T14:48:43.944Z,87091.88
2022-10-01T14:51:30.280Z,87087.00
2022-10-01T14:54:00.324Z,87093.22
2022-10-01T14:56:29.137Z,87087.31
2022-10-01T14:59:03.598Z,87098.50
2022-10-01T15:01:31.177Z,87100.66
2022-10-01T15:03:58.526Z,87106.59
2022-10-01T15:06:28.410Z,87092.59
2022-10-01T15:09:10.877Z,87097.38
2022-10-01T15:11:44.622Z,87104.31
2022-10-01T15:14:20.525Z,87102.25
2022-10-01T15:16:49.462Z,87110.28
2022-10-01T15:19:21.812Z,87106.56
2022-10-01T15:22:02.393Z,87110.81
2022-10-01T15:25:02.607Z,87112.84
2022-10-01T15:27:30.576Z,87115.56
2022-10-01T15:29:59.518Z,87116.03
2022-10-01T15:32:28.359Z,87116.47
2022-10-01T15:35:00.893Z,87116.81
2022-10-01T15:37:36.485Z,87101.31
2022-10-01T15:40:21.864Z,87091.09
2022-10-01T15:43:22.508Z,87091.44
2022-10-01T15:46:15.982Z,87093.69
2022-10-01T15:48:44.266Z,87093.34
2022-10-01T15:51:27.574Z,87097.97
2022-10-01T15:54:08.128Z,87106.03
2022-10-01T15:56:35.981Z,87102.69
2022-10-01T15:59:18.771Z,87105.78
2022-10-01T16:01:46.203Z,87104.00
2022-10-01T16:04:15.293Z,87112.00
2022-10-01T16:06:51.644Z,87109.41
2022-10-01T16:09:24.477Z,87119.38
2022-10-01T16:11:54.680Z,87123.63
2022-10-01T16:14:36.115Z,87128.25
2022-10-01T16:17:18.469Z,87131.75
2022-10-01T16:19:57.620Z,87150.00
2022-10-01T16:22:35.494Z,87134.13
2022-10-01T16:25:18.933Z,87137.16
2022-10-01T16:28:01.988Z,87144.44
2022-10-01T16:30:32.332Z,87146.78
2022-10-01T16:33:03.606Z,87156.66
2022-10-01T16:35:33.463Z,87152.91
2022-10-01T16:38:00.601Z,87159.41
2022-10-01T16:40:32.766Z,87165.16
2022-10-01T16:43:00.922Z,87158.00
2022-10-01T16:45:36.889Z,87161.44
2022-10-01T16:48:14.324Z,87156.97
2022-10-01T16:50:43.819Z,87162.66
2022-10-01T16:53:14.170Z,87172.19
2022-10-01T16:55:43.620Z,87172.63
2022-10-01T16:58:12.579Z,87167.31
2022-10-01T17:00:40.220Z,87176.84
2022-10-01T17:03:14.092Z,87186.41
2022-10-01T17:05:41.888Z,87201.59
2022-10-01T17:08:09.758Z,87198.53
2022-10-01T17:10:43.459Z,87195.91
2022-10-01T17:13:12.792Z,87188.00
2022-10-01T17:15:41.900Z,87208.50
2022-10-01T17:18:09.529Z,87214.53
2022-10-01T17:20:37.401Z,87203.97
2022-10-01T17:23:05.473Z,87205.88
2022-10-01T17:25:36.658Z,87217.25
2022-10-01T17:28:08.207Z,87220.72
2022-10-01T17:30:39.583Z,87232.44
2022-10-01T17:33:08.128Z,87233.59
2022-10-01T17:35:35.350Z,87232.06
2022-10-01T17:38:03.176Z,87233.25
2022-10-01T17:40:30.372Z,87238.59
2022-10-01T17:42:57.564Z,87247.28
2022-10-01T17:45:24.971Z,87250.69
2022-10-01T17:47:52.156Z,87245.41
2022-10-01T17:50:19.467Z,87245.81
2022-10-01T17:52:49.824Z,87239.75
2022-10-01T17:55:17.617Z,87238.63
2022-10-01T17:57:44.818Z,87242.41
2022-10-01T18:00:12.872Z,87244.31
2022-10-01T18:02:42.845Z,87252.63
2022-10-01T18:05:12.583Z,87267.03
2022-10-01T18:07:41.023Z,87259.81
2022-10-01T18:10:12.369Z,87261.72
2022-10-01T18:12:40.205Z,87267.03
2022-10-01T18:15:08.714Z,87276.56
2022-10-01T18:17:42.973Z,87281.47
2022-10-01T18:20:10.835Z,87303.41
2022-10-01T18:22:38.352Z,87300.75
2022-10-01T18:25:06.278Z,87298.47
2022-10-01T18:27:33.379Z,87296.59
2022-10-01T18:30:00.599Z,87299.63
2022-10-01T18:32:37.176Z,87300.34
2022-10-01T18:35:27.902Z,87310.59
2022-10-01T18:38:01.581Z,87306.44
2022-10-01T18:40:34.649Z,87315.50
2022-10-01T18:43:22.216Z,87312.47
2022-10-01T18:45:57.838Z,87298.88
2022-10-01T18:49:07.985Z,87292.47
2022-10-01T18:52:35.158Z,87302.31
2022-10-01T18:55:48.715Z,87324.28
2022-10-01T18:59:08.499Z,87319.38
2022-10-01T19:02:17.356Z,87309.16
2022-10-01T19:05:38.054Z,87300.50
2022-10-01T19:08:25.394Z,87300.50
2022-10-01T19:11:18.117Z,87312.97
2022-10-01T19:14:35.090Z,87314.81
2022-10-01T19:17:32.289Z,87302.00
2022-10-01T19:20:46.404Z,87320.13
2022-10-01T19:23:40.634Z,87323.19
2022-10-01T19:26:52.097Z,87321.66
2022-10-01T19:29:45.628Z,87319.41
2022-10-01T19:32:35.921Z,87327.34
2022-10-01T19:35:40.120Z,87336.81
2022-10-01T19:38:29.339Z,87340.19
2022-10-01T19:41:29.641Z,87352.28
2022-10-01T19:44:56.183Z,87349.28
2022-10-01T19:47:46.411Z,87354.22
2022-10-01T19:50:27.375Z,87360.63
2022-10-01T19:52:58.528Z,87368.94
2022-10-01T19:55:29.917Z,87366.28
2022-10-01T19:57:57.126Z,87375.72
2022-10-01T20:00:24.831Z,87371.94
2022-10-01T20:03:17.630Z,87369.28
2022-10-01T20:05:53.442Z,87371.56
2022-10-01T20:08:35.492Z,87374.22
2022-10-01T20:11:21.685Z,87383.28
2022-10-01T20:14:33.365Z,87383.28
2022-10-01T20:17:12.388Z,87394.25
2022-10-01T20:19:53.112Z,87406.34
2022-10-01T20:22:42.935Z,87409.38
2022-10-01T20:25:23.886Z,87402.56
2022-10-01T20:28:24.004Z,87406.38
2022-10-01T20:31:22.454Z,87417.31
2022-10-01T20:34:11.988Z,87413.16
2022-10-01T20:37:23.606Z,87423.72
2022-10-01T20:40:22.822Z,87426.78
2022-10-01T20:43:16.858Z,87437.34
2022-10-01T20:45:50.428Z,87438.84
2022-10-01T20:48:25.447Z,87426.78
2022-10-01T20:51:00.348Z,87422.97
2022-10-01T20:53:39.155Z,87418.44
2022-10-01T20:56:39.969Z,87431.28
2022-10-01T20:59:19.135Z,87435.44
2022-10-01T21:02:01.920Z,87424.53
2022-10-01T21:04:40.751Z,87437.72
2022-10-01T21:07:38.960Z,87430.94
2022-10-01T21:10:43.328Z,87440.00
2022-10-01T21:13:31.522Z,87441.88
2022-10-01T21:16:38.560Z,87443.00
2022-10-01T21:19:47.831Z,87447.94
2022-10-01T21:23:04.298Z,87444.16
2022-10-01T21:25:40.082Z,87448.69
2022-10-01T21:29:11.059Z,87455.88
2022-10-01T21:32:19.101Z,87483.41
2022-10-01T21:35:33.198Z,87478.13
2022-10-01T21:38:04.848Z,87479.66
2022-10-01T21:40:40.734Z,87464.53
2022-10-01T21:43:26.481Z,87489.84
2022-10-01T21:46:05.574Z,87481.91
2022-10-01T21:48:47.688Z,87486.09
2022-10-01T21:51:47.707Z,87497.03
2022-10-01T21:55:07.051Z,87495.53
2022-10-01T21:58:10.672Z,87503.47
2022-10-01T22:00:38.104Z,87501.19
2022-10-01T22:03:14.343Z,87511.00
2022-10-01T22:06:09.516Z,87502.34
2022-10-01T22:09:13.317Z,87509.13
2022-10-01T22:11:51.548Z,87519.31
2022-10-01T22:14:31.066Z,87531.78
2022-10-01T22:17:12.959Z,87545.00
2022-10-01T22:19:49.015Z,87537.06
2022-10-01T22:22:35.670Z,87531.03
2022-10-01T22:25:04.851Z,87540.06
2022-10-01T22:27:57.909Z,87543.84
2022-10-01T22:30:32.427Z,87554.44
2022-10-01T22:33:27.982Z,87558.59
2022-10-01T22:36:15.805Z,87563.47
2022-10-01T22:38:52.615Z,87563.09
2022-10-01T22:42:01.067Z,87561.22
2022-10-01T22:44:29.502Z,87573.69
2022-10-01T22:47:17.952Z,87588.41
2022-10-01T22:50:17.066Z,87572.53
2022-10-01T22:53:19.250Z,87584.63
2022-10-01T22:55:57.947Z,87576.28
2022-10-01T22:58:47.530Z,87585.38
2022-10-01T23:01:26.370Z,87581.22
2022-10-01T23:04:35.446Z,87603.88
2022-10-01T23:07:23.060Z,87612.56
2022-10-01T23:10:20.184Z,87608.78
2022-10-01T23:13:34.801Z,87617.09
2022-10-01T23:16:17.970Z,87628.41
2022-10-01T23:19:19.513Z,87640.47
2022-10-01T23:21:55.693Z,87645.75
2022-10-01T23:24:33.837Z,87650.28
2022-10-01T23:27:34.561Z,87652.94
2022-10-01T23:30:08.602Z,87636.69
2022-10-01T23:32:53.673Z,87639.69
2022-10-01T23:35:54.913Z,87643.47
2022-10-01T23:38:37.208Z,87638.16
2022-10-01T23:41:27.556Z,87639.69
2022-10-01T23:44:12.900Z,87639.69
2022-10-01T23:46:46.090Z,87635.16
2022-10-01T23:49:16.759Z,87647.94
2022-10-01T23:52:10.372Z,87645.31
2022-10-01T23:54:51.759Z,87648.72
2022-10-01T23:57:29.627Z,87642.28
